DAL1156 KDTW-KHPN
Flight info
| Callsign | DAL1156 |
|---|---|
| Flight time | 1h 21m |
| Altitude | 35000 |
| Route | LNCON DCT JHW DCT MEMMS DCT DANZI |
| Aircraft | B738/M-VGDW/C |
Departure
| Time | 2026-05-05 04:56 |
|---|---|
| Airport | Detroit Metropolitan Wayne County Airport (KDTW) |
Arrival
| Time | 2026-05-05 06:17 |
|---|---|
| Airport | Westchester County Airport (KHPN) |
| Time | Latitude | Longitude | Altitude | Speed | Heading |
|---|---|---|---|---|---|
| 2026-05-05 04:36 | 42.20364 | -83.36217 | 642 ft | 0 kts | 119° |
| 2026-05-05 04:45 | 42.20370 | -83.36232 | 642 ft | 2 kts | 119° |
| 2026-05-05 04:46 | 42.20378 | -83.36249 | 642 ft | 2 kts | 120° |
| 2026-05-05 04:46 | 42.20385 | -83.36266 | 642 ft | 2 kts | 120° |
| 2026-05-05 04:46 | 42.20392 | -83.36284 | 642 ft | 2 kts | 120° |
| 2026-05-05 04:46 | 42.20396 | -83.36295 | 641 ft | 0 kts | 119° |
| 2026-05-05 04:49 | 42.20394 | -83.36290 | 641 ft | 0 kts | 110° |
| 2026-05-05 04:49 | 42.20396 | -83.36285 | 642 ft | 0 kts | 62° |
| 2026-05-05 04:49 | 42.20420 | -83.36271 | 642 ft | 6 kts | 18° |
| 2026-05-05 04:50 | 42.20483 | -83.36244 | 643 ft | 13 kts | 20° |
| 2026-05-05 04:50 | 42.20589 | -83.36172 | 643 ft | 20 kts | 30° |
| 2026-05-05 04:50 | 42.20724 | -83.36075 | 643 ft | 22 kts | 28° |
| 2026-05-05 04:50 | 42.20860 | -83.35976 | 643 ft | 22 kts | 29° |
| 2026-05-05 04:51 | 42.20997 | -83.35877 | 643 ft | 22 kts | 28° |
| 2026-05-05 04:51 | 42.21133 | -83.35774 | 643 ft | 22 kts | 29° |
| 2026-05-05 04:51 | 42.21278 | -83.35668 | 643 ft | 23 kts | 28° |
| 2026-05-05 04:51 | 42.21422 | -83.35563 | 643 ft | 23 kts | 29° |
| 2026-05-05 04:52 | 42.21546 | -83.35426 | 641 ft | 22 kts | 81° |
| 2026-05-05 04:52 | 42.21550 | -83.35265 | 639 ft | 14 kts | 89° |
| 2026-05-05 04:52 | 42.21555 | -83.35129 | 639 ft | 14 kts | 82° |
| 2026-05-05 04:52 | 42.21608 | -83.35017 | 639 ft | 14 kts | 44° |
| 2026-05-05 04:53 | 42.21687 | -83.34917 | 639 ft | 19 kts | 44° |
| 2026-05-05 04:53 | 42.21785 | -83.34792 | 639 ft | 15 kts | 43° |
| 2026-05-05 04:53 | 42.21833 | -83.34676 | 639 ft | 14 kts | 84° |
| 2026-05-05 04:53 | 42.21838 | -83.34525 | 639 ft | 17 kts | 88° |
| 2026-05-05 04:54 | 42.21841 | -83.34349 | 639 ft | 19 kts | 89° |
| 2026-05-05 04:54 | 42.21844 | -83.34142 | 636 ft | 23 kts | 89° |
| 2026-05-05 04:54 | 42.21847 | -83.33909 | 636 ft | 26 kts | 89° |
| 2026-05-05 04:54 | 42.21854 | -83.33672 | 636 ft | 21 kts | 86° |
| 2026-05-05 04:55 | 42.21795 | -83.33539 | 634 ft | 20 kts | 192° |
| 2026-05-05 04:55 | 42.21602 | -83.33677 | 636 ft | 64 kts | 211° |
| 2026-05-05 04:55 | 42.20924 | -83.34176 | 650 ft | 154 kts | 210° |
| 2026-05-05 04:55 | 42.19845 | -83.35017 | 1126 ft | 197 kts | 212° |
| 2026-05-05 04:56 | 42.18627 | -83.35819 | 2296 ft | 205 kts | 200° |
| 2026-05-05 04:56 | 42.17187 | -83.36099 | 3275 ft | 224 kts | 175° |
| 2026-05-05 04:56 | 42.15612 | -83.35590 | 4233 ft | 246 kts | 163° |
| 2026-05-05 04:56 | 42.13951 | -83.34952 | 5423 ft | 257 kts | 165° |
| 2026-05-05 04:57 | 42.12272 | -83.34184 | 6687 ft | 262 kts | 152° |
| 2026-05-05 04:57 | 42.10818 | -83.32684 | 7454 ft | 285 kts | 130° |
| 2026-05-05 04:57 | 42.09837 | -83.30145 | 7541 ft | 330 kts | 101° |
| 2026-05-05 04:57 | 42.09699 | -83.27090 | 8762 ft | 331 kts | 85° |
| 2026-05-05 04:58 | 42.09923 | -83.24062 | 10236 ft | 326 kts | 82° |
| 2026-05-05 04:58 | 42.10206 | -83.21068 | 11308 ft | 334 kts | 81° |
| 2026-05-05 04:58 | 42.10505 | -83.17915 | 12167 ft | 347 kts | 82° |
| 2026-05-05 04:58 | 42.10802 | -83.14683 | 13170 ft | 354 kts | 82° |
| 2026-05-05 04:59 | 42.11100 | -83.11385 | 14170 ft | 360 kts | 82° |
| 2026-05-05 04:59 | 42.11401 | -83.08025 | 15119 ft | 366 kts | 82° |
| 2026-05-05 04:59 | 42.11702 | -83.04655 | 16011 ft | 372 kts | 82° |
| 2026-05-05 04:59 | 42.12012 | -83.01176 | 16869 ft | 379 kts | 83° |
| 2026-05-05 05:00 | 42.12327 | -82.97632 | 17700 ft | 385 kts | 83° |
| 2026-05-05 05:00 | 42.12640 | -82.94085 | 18529 ft | 390 kts | 83° |
| 2026-05-05 05:00 | 42.12964 | -82.90402 | 19286 ft | 397 kts | 83° |
| 2026-05-05 05:00 | 42.13286 | -82.86723 | 20039 ft | 402 kts | 83° |
| 2026-05-05 05:01 | 42.13614 | -82.82967 | 20753 ft | 408 kts | 83° |
| 2026-05-05 05:01 | 42.13947 | -82.79150 | 21487 ft | 413 kts | 83° |
| 2026-05-05 05:01 | 42.14279 | -82.75314 | 22169 ft | 419 kts | 83° |
| 2026-05-05 05:01 | 42.14614 | -82.71426 | 22777 ft | 425 kts | 83° |
| 2026-05-05 05:02 | 42.14954 | -82.67463 | 23428 ft | 430 kts | 84° |
| 2026-05-05 05:02 | 42.15299 | -82.63430 | 24081 ft | 434 kts | 84° |
| 2026-05-05 05:02 | 42.15641 | -82.59409 | 24724 ft | 438 kts | 84° |
| 2026-05-05 05:02 | 42.15989 | -82.55318 | 25269 ft | 444 kts | 84° |
| 2026-05-05 05:03 | 42.16336 | -82.51196 | 25885 ft | 447 kts | 84° |
| 2026-05-05 05:03 | 42.16688 | -82.47007 | 26451 ft | 451 kts | 84° |
| 2026-05-05 05:03 | 42.17038 | -82.42825 | 27001 ft | 455 kts | 84° |
| 2026-05-05 05:03 | 42.17392 | -82.38580 | 27522 ft | 460 kts | 84° |
| 2026-05-05 05:04 | 42.17750 | -82.34269 | 28065 ft | 463 kts | 85° |
| 2026-05-05 05:04 | 42.18103 | -82.29991 | 28529 ft | 468 kts | 85° |
| 2026-05-05 05:04 | 42.18462 | -82.25612 | 29046 ft | 471 kts | 85° |
| 2026-05-05 05:04 | 42.18822 | -82.21217 | 29522 ft | 475 kts | 85° |
| 2026-05-05 05:05 | 42.19183 | -82.16777 | 29947 ft | 479 kts | 85° |
| 2026-05-05 05:05 | 42.19540 | -82.12383 | 30576 ft | 478 kts | 86° |
| 2026-05-05 05:05 | 42.19895 | -82.08014 | 31772 ft | 462 kts | 86° |
| 2026-05-05 05:05 | 42.20235 | -82.03854 | 33295 ft | 438 kts | 87° |
| 2026-05-05 05:06 | 42.20554 | -81.99964 | 34779 ft | 413 kts | 88° |
| 2026-05-05 05:06 | 42.20860 | -81.96135 | 35308 ft | 411 kts | 88° |
| 2026-05-05 05:06 | 42.21160 | -81.92259 | 35361 ft | 420 kts | 88° |
| 2026-05-05 05:07 | 42.21776 | -81.84275 | 35364 ft | 438 kts | 88° |
| 2026-05-05 05:07 | 42.22416 | -81.76025 | 35363 ft | 449 kts | 87° |
| 2026-05-05 05:08 | 42.23064 | -81.67645 | 35364 ft | 453 kts | 88° |
| 2026-05-05 05:08 | 42.23711 | -81.59224 | 35364 ft | 454 kts | 88° |
| 2026-05-05 05:09 | 42.24356 | -81.50729 | 35363 ft | 455 kts | 88° |
| 2026-05-05 05:09 | 42.24987 | -81.42300 | 35363 ft | 456 kts | 87° |
| 2026-05-05 05:10 | 42.25619 | -81.33782 | 35364 ft | 456 kts | 88° |
| 2026-05-05 05:10 | 42.26242 | -81.25312 | 35363 ft | 456 kts | 88° |
| 2026-05-05 05:11 | 42.26857 | -81.16875 | 35363 ft | 455 kts | 88° |
| 2026-05-05 05:11 | 42.27470 | -81.08364 | 35363 ft | 455 kts | 88° |
| 2026-05-05 05:12 | 42.28075 | -80.99889 | 35363 ft | 455 kts | 88° |
| 2026-05-05 05:12 | 42.28670 | -80.91437 | 35363 ft | 455 kts | 88° |
| 2026-05-05 05:13 | 42.29260 | -80.82960 | 35363 ft | 455 kts | 88° |
| 2026-05-05 05:13 | 42.29842 | -80.74570 | 35363 ft | 445 kts | 88° |
| 2026-05-05 05:14 | 42.30407 | -80.66335 | 35364 ft | 438 kts | 88° |
| 2026-05-05 05:14 | 42.30953 | -80.58205 | 35363 ft | 435 kts | 88° |
| 2026-05-05 05:15 | 42.31495 | -80.50095 | 35363 ft | 434 kts | 88° |
| 2026-05-05 05:15 | 42.32029 | -80.42030 | 35363 ft | 433 kts | 88° |
| 2026-05-05 05:16 | 42.32553 | -80.34051 | 35363 ft | 425 kts | 89° |
| 2026-05-05 05:16 | 42.33063 | -80.26158 | 35363 ft | 424 kts | 89° |
| 2026-05-05 05:17 | 42.33568 | -80.18249 | 35364 ft | 421 kts | 89° |
| 2026-05-05 05:17 | 42.34062 | -80.10426 | 35363 ft | 420 kts | 89° |
| 2026-05-05 05:18 | 42.34552 | -80.02589 | 35363 ft | 420 kts | 89° |
| 2026-05-05 05:18 | 42.35039 | -79.94715 | 35363 ft | 420 kts | 89° |
| 2026-05-05 05:19 | 42.35519 | -79.86877 | 35364 ft | 420 kts | 89° |
| 2026-05-05 05:19 | 42.35993 | -79.79054 | 35364 ft | 420 kts | 89° |
| 2026-05-05 05:20 | 42.36462 | -79.71211 | 35364 ft | 420 kts | 89° |
| 2026-05-05 05:20 | 42.36926 | -79.63390 | 35365 ft | 418 kts | 89° |
| 2026-05-05 05:21 | 42.37383 | -79.55570 | 35366 ft | 419 kts | 89° |
| 2026-05-05 05:21 | 42.37835 | -79.47742 | 35366 ft | 419 kts | 89° |
| 2026-05-05 05:22 | 42.38287 | -79.39841 | 35366 ft | 420 kts | 89° |
| 2026-05-05 05:22 | 42.38271 | -79.32072 | 35368 ft | 415 kts | 99° |
| 2026-05-05 05:23 | 42.37599 | -79.24322 | 35367 ft | 414 kts | 99° |
| 2026-05-05 05:23 | 42.36975 | -79.16615 | 35367 ft | 415 kts | 99° |
| 2026-05-05 05:24 | 42.36398 | -79.08838 | 35367 ft | 416 kts | 98° |
| 2026-05-05 05:24 | 42.35844 | -79.01116 | 35367 ft | 414 kts | 98° |
| 2026-05-05 05:25 | 42.35294 | -78.93365 | 35368 ft | 415 kts | 98° |
| 2026-05-05 05:25 | 42.34748 | -78.85628 | 35369 ft | 415 kts | 98° |
| 2026-05-05 05:26 | 42.34199 | -78.77899 | 35370 ft | 415 kts | 98° |
| 2026-05-05 05:26 | 42.33649 | -78.70182 | 35371 ft | 416 kts | 98° |
| 2026-05-05 05:27 | 42.33087 | -78.62378 | 35371 ft | 416 kts | 98° |
| 2026-05-05 05:27 | 42.32245 | -78.50803 | 35371 ft | 416 kts | 98° |
| 2026-05-05 05:28 | 42.31674 | -78.43050 | 35371 ft | 415 kts | 98° |
| 2026-05-05 05:28 | 42.31096 | -78.35292 | 35371 ft | 415 kts | 98° |
| 2026-05-05 05:29 | 42.30516 | -78.27567 | 35371 ft | 416 kts | 99° |
| 2026-05-05 05:29 | 42.29932 | -78.19860 | 35370 ft | 416 kts | 99° |
| 2026-05-05 05:30 | 42.29340 | -78.12101 | 35370 ft | 414 kts | 99° |
| 2026-05-05 05:30 | 42.28745 | -78.04398 | 35371 ft | 415 kts | 99° |
| 2026-05-05 05:31 | 42.28146 | -77.96693 | 35370 ft | 415 kts | 99° |
| 2026-05-05 05:31 | 42.27540 | -77.88969 | 35371 ft | 414 kts | 99° |
| 2026-05-05 05:32 | 42.26929 | -77.81255 | 35372 ft | 415 kts | 99° |
| 2026-05-05 05:32 | 42.26311 | -77.73531 | 35372 ft | 415 kts | 99° |
| 2026-05-05 05:33 | 42.25690 | -77.65818 | 35372 ft | 415 kts | 99° |
| 2026-05-05 05:33 | 42.25064 | -77.58117 | 35370 ft | 415 kts | 99° |
| 2026-05-05 05:34 | 42.24433 | -77.50408 | 35369 ft | 414 kts | 99° |
| 2026-05-05 05:34 | 42.23795 | -77.42683 | 35370 ft | 415 kts | 99° |
| 2026-05-05 05:35 | 42.23152 | -77.34963 | 35369 ft | 415 kts | 99° |
| 2026-05-05 05:35 | 42.22505 | -77.27258 | 35370 ft | 415 kts | 99° |
| 2026-05-05 05:36 | 42.21855 | -77.19576 | 35370 ft | 415 kts | 99° |
| 2026-05-05 05:36 | 42.21201 | -77.11892 | 35371 ft | 415 kts | 99° |
| 2026-05-05 05:37 | 42.20537 | -77.04174 | 35371 ft | 415 kts | 99° |
| 2026-05-05 05:37 | 42.19873 | -76.96503 | 35372 ft | 415 kts | 99° |
| 2026-05-05 05:38 | 42.19196 | -76.88761 | 35371 ft | 415 kts | 99° |
| 2026-05-05 05:38 | 42.18517 | -76.81039 | 35370 ft | 416 kts | 99° |
| 2026-05-05 05:39 | 42.17831 | -76.73319 | 35369 ft | 414 kts | 99° |
| 2026-05-05 05:39 | 42.17142 | -76.65621 | 35368 ft | 415 kts | 99° |
| 2026-05-05 05:40 | 42.16449 | -76.57937 | 35367 ft | 414 kts | 99° |
| 2026-05-05 05:40 | 42.15750 | -76.50249 | 35366 ft | 415 kts | 99° |
| 2026-05-05 05:41 | 42.15047 | -76.42572 | 35366 ft | 415 kts | 99° |
| 2026-05-05 05:41 | 42.14333 | -76.34834 | 35367 ft | 416 kts | 100° |
| 2026-05-05 05:42 | 42.13618 | -76.27135 | 35368 ft | 415 kts | 100° |
| 2026-05-05 05:42 | 42.12899 | -76.19453 | 35368 ft | 416 kts | 100° |
| 2026-05-05 05:43 | 42.12172 | -76.11758 | 35368 ft | 415 kts | 100° |
| 2026-05-05 05:43 | 42.11445 | -76.04094 | 35368 ft | 416 kts | 100° |
| 2026-05-05 05:44 | 42.10711 | -75.96421 | 35367 ft | 414 kts | 100° |
| 2026-05-05 05:44 | 42.09970 | -75.88730 | 35367 ft | 415 kts | 100° |
| 2026-05-05 05:45 | 42.08910 | -75.81152 | 35364 ft | 411 kts | 112° |
| 2026-05-05 05:45 | 42.06443 | -75.74280 | 35367 ft | 410 kts | 118° |
| 2026-05-05 05:46 | 42.03861 | -75.67454 | 35366 ft | 410 kts | 117° |
| 2026-05-05 05:46 | 42.01378 | -75.60600 | 35367 ft | 410 kts | 116° |
| 2026-05-05 05:47 | 41.98920 | -75.53677 | 35369 ft | 410 kts | 116° |
| 2026-05-05 05:47 | 41.96490 | -75.46773 | 35370 ft | 411 kts | 115° |
| 2026-05-05 05:48 | 41.94073 | -75.39887 | 35370 ft | 410 kts | 116° |
| 2026-05-05 05:48 | 41.91643 | -75.32964 | 35371 ft | 410 kts | 116° |
| 2026-05-05 05:49 | 41.89219 | -75.26069 | 35371 ft | 411 kts | 116° |
| 2026-05-05 05:49 | 41.86791 | -75.19168 | 35370 ft | 411 kts | 116° |
| 2026-05-05 05:50 | 41.84342 | -75.12227 | 35370 ft | 411 kts | 116° |
| 2026-05-05 05:50 | 41.81911 | -75.05355 | 35370 ft | 411 kts | 116° |
| 2026-05-05 05:51 | 41.79460 | -74.98438 | 35370 ft | 412 kts | 116° |
| 2026-05-05 05:51 | 41.77024 | -74.91580 | 35369 ft | 410 kts | 116° |
| 2026-05-05 05:52 | 41.74571 | -74.84692 | 35369 ft | 411 kts | 116° |
| 2026-05-05 05:52 | 41.72102 | -74.77777 | 35369 ft | 411 kts | 116° |
| 2026-05-05 05:53 | 41.69648 | -74.70923 | 35369 ft | 411 kts | 116° |
| 2026-05-05 05:53 | 41.67186 | -74.64068 | 35367 ft | 410 kts | 116° |
| 2026-05-05 05:54 | 41.64758 | -74.57310 | 35242 ft | 402 kts | 116° |
| 2026-05-05 05:54 | 41.63550 | -74.53959 | 34990 ft | 400 kts | 116° |
| 2026-05-05 05:54 | 41.62336 | -74.50594 | 34752 ft | 406 kts | 116° |
| 2026-05-05 05:55 | 41.61109 | -74.47200 | 34539 ft | 409 kts | 116° |
| 2026-05-05 05:55 | 41.59872 | -74.43778 | 34325 ft | 413 kts | 116° |
| 2026-05-05 05:55 | 41.58617 | -74.40314 | 34117 ft | 416 kts | 116° |
| 2026-05-05 05:55 | 41.57364 | -74.36861 | 33907 ft | 417 kts | 116° |
| 2026-05-05 05:56 | 41.56098 | -74.33375 | 33602 ft | 423 kts | 117° |
| 2026-05-05 05:56 | 41.54793 | -74.29787 | 33200 ft | 428 kts | 117° |
| 2026-05-05 05:56 | 41.53514 | -74.26272 | 32684 ft | 420 kts | 117° |
| 2026-05-05 05:56 | 41.52247 | -74.22787 | 31742 ft | 424 kts | 118° |
| 2026-05-05 05:57 | 41.50954 | -74.19244 | 30479 ft | 437 kts | 118° |
| 2026-05-05 05:57 | 41.49610 | -74.15572 | 29026 ft | 454 kts | 119° |
| 2026-05-05 05:57 | 41.48222 | -74.11787 | 27822 ft | 461 kts | 118° |
| 2026-05-05 05:57 | 41.46823 | -74.07967 | 26905 ft | 460 kts | 118° |
| 2026-05-05 05:58 | 41.45427 | -74.04153 | 26147 ft | 455 kts | 118° |
| 2026-05-05 05:58 | 41.44053 | -74.00402 | 25449 ft | 449 kts | 118° |
| 2026-05-05 05:58 | 41.42699 | -73.96712 | 24763 ft | 443 kts | 118° |
| 2026-05-05 05:58 | 41.41357 | -73.93062 | 24061 ft | 438 kts | 118° |
| 2026-05-05 05:59 | 41.40042 | -73.89489 | 23377 ft | 433 kts | 117° |
| 2026-05-05 05:59 | 41.38730 | -73.85931 | 22827 ft | 427 kts | 117° |
| 2026-05-05 05:59 | 41.37428 | -73.82407 | 22399 ft | 424 kts | 117° |
| 2026-05-05 05:59 | 41.36126 | -73.78886 | 21988 ft | 420 kts | 117° |
| 2026-05-05 06:00 | 41.34854 | -73.75450 | 21479 ft | 413 kts | 117° |
| 2026-05-05 06:00 | 41.33602 | -73.72072 | 20828 ft | 408 kts | 117° |
| 2026-05-05 06:00 | 41.32362 | -73.68729 | 20185 ft | 404 kts | 117° |
| 2026-05-05 06:00 | 41.31112 | -73.65430 | 19593 ft | 399 kts | 118° |
| 2026-05-05 06:01 | 41.29676 | -73.62254 | 18986 ft | 403 kts | 125° |
| 2026-05-05 06:01 | 41.27850 | -73.59470 | 18120 ft | 406 kts | 138° |
| 2026-05-05 06:01 | 41.25625 | -73.57209 | 17170 ft | 405 kts | 146° |
| 2026-05-05 06:01 | 41.23233 | -73.55299 | 16569 ft | 395 kts | 153° |
| 2026-05-05 06:02 | 41.20759 | -73.53869 | 16066 ft | 384 kts | 163° |
| 2026-05-05 06:02 | 41.18162 | -73.53522 | 15534 ft | 373 kts | 187° |
| 2026-05-05 06:02 | 41.15702 | -73.54458 | 14986 ft | 365 kts | 205° |
| 2026-05-05 06:02 | 41.13486 | -73.55988 | 14441 ft | 358 kts | 212° |
| 2026-05-05 06:03 | 41.11506 | -73.57935 | 13991 ft | 348 kts | 221° |
| 2026-05-05 06:03 | 41.09758 | -73.60075 | 13512 ft | 342 kts | 224° |
| 2026-05-05 06:03 | 41.08149 | -73.62363 | 12995 ft | 337 kts | 236° |
| 2026-05-05 06:03 | 41.07151 | -73.65217 | 12493 ft | 346 kts | 254° |
| 2026-05-05 06:04 | 41.06516 | -73.68342 | 11925 ft | 360 kts | 257° |
| 2026-05-05 06:04 | 41.05917 | -73.71545 | 11182 ft | 357 kts | 257° |
| 2026-05-05 06:04 | 41.05334 | -73.74656 | 10756 ft | 333 kts | 258° |
| 2026-05-05 06:04 | 41.05141 | -73.77538 | 10661 ft | 301 kts | 277° |
| 2026-05-05 06:05 | 41.05543 | -73.80146 | 10588 ft | 283 kts | 286° |
| 2026-05-05 06:05 | 41.06034 | -73.82603 | 10431 ft | 272 kts | 286° |
| 2026-05-05 06:05 | 41.06517 | -73.85012 | 10168 ft | 265 kts | 286° |
| 2026-05-05 06:05 | 41.06976 | -73.87318 | 9938 ft | 259 kts | 286° |
| 2026-05-05 06:06 | 41.07426 | -73.89589 | 9761 ft | 250 kts | 287° |
| 2026-05-05 06:06 | 41.08198 | -73.91660 | 9601 ft | 256 kts | 312° |
| 2026-05-05 06:06 | 41.09595 | -73.93190 | 9401 ft | 265 kts | 327° |
| 2026-05-05 06:06 | 41.11124 | -73.94519 | 9170 ft | 263 kts | 327° |
| 2026-05-05 06:07 | 41.12633 | -73.95828 | 8988 ft | 253 kts | 327° |
| 2026-05-05 06:07 | 41.14089 | -73.97096 | 8838 ft | 243 kts | 327° |
| 2026-05-05 06:07 | 41.15495 | -73.98324 | 8716 ft | 245 kts | 327° |
| 2026-05-05 06:07 | 41.16970 | -73.99609 | 8607 ft | 258 kts | 327° |
| 2026-05-05 06:08 | 41.18465 | -74.00914 | 8483 ft | 261 kts | 327° |
| 2026-05-05 06:08 | 41.19990 | -74.02245 | 8372 ft | 256 kts | 327° |
| 2026-05-05 06:08 | 41.21430 | -74.03503 | 8283 ft | 243 kts | 327° |
| 2026-05-05 06:08 | 41.22826 | -74.04724 | 8217 ft | 239 kts | 327° |
| 2026-05-05 06:09 | 41.24256 | -74.05975 | 8179 ft | 255 kts | 327° |
| 2026-05-05 06:09 | 41.25749 | -74.07281 | 8110 ft | 259 kts | 327° |
| 2026-05-05 06:09 | 41.27265 | -74.08592 | 8079 ft | 258 kts | 330° |
| 2026-05-05 06:09 | 41.28944 | -74.09378 | 7964 ft | 257 kts | 355° |
| 2026-05-05 06:10 | 41.30672 | -74.09029 | 7753 ft | 249 kts | 24° |
| 2026-05-05 06:10 | 41.31997 | -74.07622 | 7521 ft | 246 kts | 53° |
| 2026-05-05 06:10 | 41.32636 | -74.05545 | 7306 ft | 242 kts | 76° |
| 2026-05-05 06:10 | 41.32929 | -74.03384 | 7158 ft | 234 kts | 78° |
| 2026-05-05 06:11 | 41.33210 | -74.01247 | 6712 ft | 240 kts | 77° |
| 2026-05-05 06:11 | 41.33507 | -73.99045 | 6181 ft | 248 kts | 77° |
| 2026-05-05 06:11 | 41.33806 | -73.96764 | 5638 ft | 255 kts | 78° |
| 2026-05-05 06:11 | 41.33872 | -73.94392 | 5081 ft | 264 kts | 98° |
| 2026-05-05 06:12 | 41.33101 | -73.92162 | 4724 ft | 264 kts | 129° |
| 2026-05-05 06:12 | 41.31762 | -73.90561 | 4491 ft | 258 kts | 141° |
| 2026-05-05 06:12 | 41.30328 | -73.89159 | 4232 ft | 253 kts | 144° |
| 2026-05-05 06:12 | 41.28893 | -73.87841 | 3980 ft | 248 kts | 144° |
| 2026-05-05 06:13 | 41.27453 | -73.86577 | 3729 ft | 244 kts | 147° |
| 2026-05-05 06:13 | 41.26001 | -73.85439 | 3480 ft | 241 kts | 149° |
| 2026-05-05 06:13 | 41.24540 | -73.84321 | 3237 ft | 242 kts | 149° |
| 2026-05-05 06:13 | 41.23074 | -73.83193 | 2995 ft | 246 kts | 149° |
| 2026-05-05 06:14 | 41.21596 | -73.82060 | 2749 ft | 245 kts | 149° |
| 2026-05-05 06:14 | 41.20115 | -73.80926 | 2492 ft | 241 kts | 149° |
| 2026-05-05 06:14 | 41.18686 | -73.79832 | 2368 ft | 231 kts | 149° |
| 2026-05-05 06:14 | 41.17324 | -73.78790 | 2356 ft | 218 kts | 149° |
| 2026-05-05 06:15 | 41.16058 | -73.77821 | 2352 ft | 205 kts | 149° |
| 2026-05-05 06:15 | 41.14834 | -73.76884 | 2150 ft | 205 kts | 149° |
| 2026-05-05 06:15 | 41.13583 | -73.75927 | 1819 ft | 206 kts | 149° |
| 2026-05-05 06:15 | 41.12404 | -73.75028 | 1595 ft | 183 kts | 149° |
| 2026-05-05 06:16 | 41.11358 | -73.74232 | 1357 ft | 158 kts | 150° |
| 2026-05-05 06:16 | 41.10452 | -73.73556 | 1132 ft | 146 kts | 148° |
| 2026-05-05 06:16 | 41.09593 | -73.72894 | 881 ft | 138 kts | 149° |
| 2026-05-05 06:16 | 41.08781 | -73.72280 | 748 ft | 133 kts | 149° |
| 2026-05-05 06:17 | 41.07980 | -73.71664 | 559 ft | 132 kts | 149° |
| 2026-05-05 06:17 | 41.07218 | -73.71070 | 420 ft | 113 kts | 149° |
| 2026-05-05 06:17 | 41.06701 | -73.70676 | 403 ft | 57 kts | 150° |
| 2026-05-05 06:17 | 41.06535 | -73.70395 | 394 ft | 24 kts | 58° |
| 2026-05-05 06:18 | 41.06596 | -73.70377 | 396 ft | 4 kts | 15° |
| 2026-05-05 06:18 | 41.06623 | -73.70366 | 397 ft | 3 kts | 17° |